createdAt,value
2022-08-17T00:01:27.924Z,14.05
2022-08-17T00:03:55.808Z,14.01
2022-08-17T00:06:25.967Z,13.91
2022-08-17T00:09:01.167Z,13.87
2022-08-17T00:11:31.240Z,13.85
2022-08-17T00:14:05.219Z,13.80
2022-08-17T00:16:55.611Z,13.68
2022-08-17T00:19:25.756Z,13.63
2022-08-17T00:22:32.942Z,13.78
2022-08-17T00:24:43.025Z,13.79
2022-08-17T00:27:09.778Z,13.68
2022-08-17T00:29:36.223Z,13.45
2022-08-17T00:33:12.527Z,13.40
2022-08-17T00:34:50.105Z,13.50
2022-08-17T00:37:17.008Z,13.35
2022-08-17T00:39:43.765Z,13.51
2022-08-17T00:42:19.159Z,13.51
2022-08-17T00:44:46.085Z,13.46
2022-08-17T00:47:12.518Z,13.41
2022-08-17T00:49:39.459Z,13.34
2022-08-17T00:52:15.361Z,13.14
2022-08-17T00:54:45.461Z,13.27
2022-08-17T00:57:38.281Z,13.38
2022-08-17T01:00:19.881Z,13.41
2022-08-17T01:02:47.724Z,13.35
2022-08-17T01:05:20.993Z,13.26
2022-08-17T01:07:50.718Z,13.26
2022-08-17T01:11:00.423Z,13.20
2022-08-17T01:13:10.639Z,13.20
2022-08-17T01:15:40.676Z,13.22
2022-08-17T01:18:10.304Z,13.17
2022-08-17T01:20:48.140Z,13.12
2022-08-17T01:23:18.536Z,13.07
2022-08-17T01:25:52.708Z,12.99
2022-08-17T01:28:53.227Z,12.95
2022-08-17T01:31:08.644Z,12.94
2022-08-17T01:33:35.938Z,12.99
2022-08-17T01:36:04.411Z,13.02
2022-08-17T01:38:32.248Z,12.99
2022-08-17T01:41:03.515Z,12.91
2022-08-17T01:43:35.025Z,12.89
2022-08-17T01:46:03.704Z,12.84
2022-08-17T01:48:33.219Z,12.84
2022-08-17T01:51:01.000Z,12.90
2022-08-17T01:53:34.725Z,12.87
2022-08-17T01:56:08.358Z,12.85
2022-08-17T01:58:35.685Z,12.78
2022-08-17T02:01:03.946Z,12.76
2022-08-17T02:03:30.566Z,12.73
2022-08-17T02:05:58.047Z,12.70
2022-08-17T02:08:37.324Z,12.64
2022-08-17T02:11:12.097Z,12.42
2022-08-17T02:13:39.540Z,12.21
2022-08-17T02:16:06.254Z,12.31
2022-08-17T02:18:33.448Z,12.50
2022-08-17T02:21:00.460Z,12.60
2022-08-17T02:23:30.273Z,12.48
2022-08-17T02:26:00.323Z,12.42
2022-08-17T02:28:28.674Z,12.40
2022-08-17T02:31:02.597Z,12.58
2022-08-17T02:33:43.053Z,12.58
2022-08-17T02:36:11.952Z,12.51
2022-08-17T02:38:39.856Z,12.48
2022-08-17T02:41:06.752Z,12.41
2022-08-17T02:43:33.577Z,12.52
2022-08-17T02:46:00.078Z,12.55
2022-08-17T02:48:28.038Z,12.55
2022-08-17T02:50:58.319Z,12.48
2022-08-17T02:53:25.706Z,12.44
2022-08-17T02:55:52.579Z,12.47
2022-08-17T02:58:34.453Z,12.52
2022-08-17T03:01:04.702Z,12.47
2022-08-17T03:03:31.636Z,12.49
2022-08-17T03:05:58.092Z,12.46
2022-08-17T03:08:25.349Z,12.35
2022-08-17T03:10:52.396Z,12.36
2022-08-17T03:13:19.289Z,12.19
2022-08-17T03:15:46.796Z,12.12
2022-08-17T03:18:24.932Z,12.08
2022-08-17T03:20:57.950Z,11.94
2022-08-17T03:23:25.664Z,12.07
2022-08-17T03:25:53.902Z,12.11
2022-08-17T03:28:21.961Z,12.15
2022-08-17T03:30:49.276Z,12.11
2022-08-17T03:33:16.125Z,12.24
2022-08-17T03:35:43.892Z,12.29
2022-08-17T03:38:11.798Z,12.34
2022-08-17T03:40:57.221Z,12.43
2022-08-17T03:43:26.653Z,12.55
2022-08-17T03:46:28.486Z,12.37
2022-08-17T03:49:16.695Z,12.16
2022-08-17T03:52:01.588Z,12.25
2022-08-17T03:54:47.279Z,12.32
2022-08-17T03:57:14.024Z,12.43
2022-08-17T03:59:40.897Z,12.58
2022-08-17T04:02:19.521Z,12.69
2022-08-17T04:04:46.501Z,12.77
2022-08-17T04:07:13.289Z,12.84
2022-08-17T04:09:40.051Z,12.82
2022-08-17T04:12:06.610Z,12.71
2022-08-17T04:14:36.706Z,12.70
2022-08-17T04:17:18.808Z,12.77
2022-08-17T04:19:47.231Z,12.83
2022-08-17T04:22:30.291Z,12.96
2022-08-17T04:25:01.039Z,12.97
2022-08-17T04:27:27.420Z,12.90
2022-08-17T04:29:55.794Z,12.96
2022-08-17T04:32:25.165Z,12.75
2022-08-17T04:35:10.026Z,12.84
2022-08-17T04:37:36.818Z,12.92
2022-08-17T04:40:22.832Z,13.08
2022-08-17T04:43:07.815Z,13.04
2022-08-17T04:45:38.825Z,13.15
2022-08-17T04:48:05.832Z,13.27
2022-08-17T04:50:35.143Z,13.30
2022-08-17T04:53:02.139Z,13.34
2022-08-17T04:55:28.941Z,13.42
2022-08-17T04:57:55.999Z,13.39
2022-08-17T05:00:25.544Z,13.35
2022-08-17T05:02:55.256Z,13.32
2022-08-17T05:05:27.209Z,13.30
2022-08-17T05:07:57.039Z,13.25
2022-08-17T05:10:29.807Z,13.32
2022-08-17T05:13:13.233Z,13.27
2022-08-17T05:15:44.842Z,13.26
2022-08-17T05:18:13.147Z,13.28
2022-08-17T05:20:40.626Z,13.29
2022-08-17T05:23:10.649Z,13.28
2022-08-17T05:25:45.688Z,13.15
2022-08-17T05:28:16.114Z,13.23
2022-08-17T05:30:43.863Z,13.36
2022-08-17T05:33:34.887Z,13.34
2022-08-17T05:36:03.148Z,13.61
2022-08-17T05:38:30.668Z,13.89
2022-08-17T05:40:59.262Z,14.04
2022-08-17T05:43:31.754Z,14.16
2022-08-17T05:46:10.730Z,14.40
2022-08-17T05:48:40.509Z,14.80
2022-08-17T05:51:27.777Z,15.16
2022-08-17T05:54:06.052Z,15.47
2022-08-17T05:57:00.489Z,15.70
2022-08-17T05:59:32.783Z,15.87
2022-08-17T06:02:10.131Z,16.81
2022-08-17T06:04:57.958Z,18.62
2022-08-17T06:07:42.485Z,20.05
2022-08-17T06:10:38.725Z,22.03
2022-08-17T06:13:16.500Z,23.14
2022-08-17T06:16:34.201Z,23.34
2022-08-17T06:19:39.428Z,24.68
2022-08-17T06:22:10.141Z,25.75
2022-08-17T06:24:48.341Z,26.64
2022-08-17T06:27:38.953Z,27.15
2022-08-17T06:30:13.299Z,27.94
2022-08-17T06:32:44.104Z,29.17
2022-08-17T06:35:14.220Z,29.73
2022-08-17T06:37:56.288Z,30.19
2022-08-17T06:40:51.997Z,30.31
2022-08-17T06:43:24.432Z,28.80
2022-08-17T06:45:59.279Z,28.46
2022-08-17T06:48:48.308Z,27.83
2022-08-17T06:51:23.852Z,26.83
2022-08-17T06:53:59.617Z,27.05
2022-08-17T06:56:53.511Z,27.89
2022-08-17T06:59:47.173Z,27.63
2022-08-17T07:02:29.327Z,27.51
2022-08-17T07:05:15.480Z,28.70
2022-08-17T07:08:15.263Z,28.92
2022-08-17T07:10:47.961Z,30.08
2022-08-17T07:13:29.696Z,31.27
2022-08-17T07:16:13.071Z,29.97
2022-08-17T07:18:39.994Z,27.62
2022-08-17T07:21:19.205Z,29.14
2022-08-17T07:24:03.877Z,30.63
2022-08-17T07:26:30.316Z,30.58
2022-08-17T07:28:57.198Z,32.62
2022-08-17T07:31:26.801Z,32.59
2022-08-17T07:34:19.383Z,32.67
2022-08-17T07:36:45.796Z,33.36
2022-08-17T07:39:12.245Z,34.07
2022-08-17T07:41:57.646Z,33.52
2022-08-17T07:44:27.109Z,33.87
2022-08-17T07:47:13.327Z,33.67
2022-08-17T07:49:44.540Z,31.75
2022-08-17T07:52:51.828Z,32.58
2022-08-17T07:55:33.279Z,34.56
2022-08-17T07:58:00.054Z,33.45
2022-08-17T08:00:32.653Z,32.62
2022-08-17T08:03:17.709Z,31.94
2022-08-17T08:05:58.032Z,31.84
2022-08-17T08:08:26.249Z,31.13
2022-08-17T08:11:12.028Z,31.87
2022-08-17T08:13:42.542Z,30.04
2022-08-17T08:16:29.608Z,29.61
2022-08-17T08:19:02.624Z,29.02
2022-08-17T08:22:06.489Z,29.45
2022-08-17T08:25:28.874Z,29.61
2022-08-17T08:28:17.089Z,29.19
2022-08-17T08:30:49.495Z,30.73
2022-08-17T08:33:37.968Z,30.80
2022-08-17T08:37:15.892Z,28.94
2022-08-17T08:39:30.342Z,31.10
2022-08-17T08:42:07.582Z,29.60
2022-08-17T08:45:07.829Z,29.50
2022-08-17T08:47:53.881Z,31.76
2022-08-17T08:50:43.173Z,32.76
2022-08-17T08:53:25.141Z,34.33
2022-08-17T08:56:11.827Z,35.34
2022-08-17T08:58:42.458Z,33.86
2022-08-17T09:01:24.569Z,34.76
2022-08-17T09:04:23.184Z,33.56
2022-08-17T09:07:12.592Z,31.69
2022-08-17T09:09:46.369Z,32.63
2022-08-17T09:12:29.761Z,33.50
2022-08-17T09:15:13.792Z,34.80
2022-08-17T09:18:03.671Z,34.83
2022-08-17T09:20:48.097Z,33.58
2022-08-17T09:23:42.069Z,34.02
2022-08-17T09:26:23.916Z,35.57
2022-08-17T09:28:52.898Z,36.35
2022-08-17T09:31:29.959Z,35.14
2022-08-17T09:34:02.653Z,31.18
2022-08-17T09:36:40.825Z,30.91
2022-08-17T09:39:15.668Z,32.48
2022-08-17T09:42:19.519Z,33.40
2022-08-17T09:45:02.814Z,31.36
2022-08-17T09:47:38.337Z,32.85
2022-08-17T09:50:15.882Z,31.58
2022-08-17T09:52:43.372Z,30.45
2022-08-17T09:55:09.803Z,31.37
2022-08-17T09:58:02.409Z,29.91
2022-08-17T10:00:35.704Z,28.20
2022-08-17T10:03:10.419Z,28.85
2022-08-17T10:05:46.260Z,30.02
2022-08-17T10:08:21.826Z,29.59
2022-08-17T10:11:05.577Z,30.63
2022-08-17T10:13:40.408Z,30.98
2022-08-17T10:16:52.023Z,31.52
2022-08-17T10:19:48.745Z,29.24
2022-08-17T10:22:56.499Z,30.02
2022-08-17T10:25:54.667Z,29.07
2022-08-17T10:28:29.440Z,30.21
2022-08-17T10:31:30.996Z,32.37
2022-08-17T10:34:34.175Z,31.56
2022-08-17T10:37:44.534Z,31.96
2022-08-17T10:40:24.491Z,32.24
2022-08-17T10:43:05.125Z,32.42
2022-08-17T10:46:09.477Z,32.72
2022-08-17T10:49:15.255Z,32.33
2022-08-17T10:51:41.898Z,32.66
2022-08-17T10:54:35.004Z,32.64
2022-08-17T10:57:01.452Z,32.23
2022-08-17T10:59:50.716Z,31.49
2022-08-17T11:02:28.413Z,32.21
2022-08-17T11:05:00.885Z,32.09
2022-08-17T11:08:08.002Z,33.45
2022-08-17T11:10:51.919Z,33.68
2022-08-17T11:13:44.870Z,33.99
2022-08-17T11:16:29.975Z,33.18
2022-08-17T11:19:13.657Z,33.45
2022-08-17T11:21:50.346Z,35.20
2022-08-17T11:24:20.868Z,34.90
2022-08-17T11:27:20.516Z,33.83
2022-08-17T11:29:59.521Z,31.05
2022-08-17T11:32:47.084Z,31.36
2022-08-17T11:35:21.316Z,32.09
2022-08-17T11:37:59.213Z,33.12
2022-08-17T11:40:49.005Z,33.22
2022-08-17T11:43:28.984Z,31.62
2022-08-17T11:46:13.282Z,31.34
2022-08-17T11:49:08.961Z,32.51
2022-08-17T11:52:01.869Z,33.94
2022-08-17T11:54:34.951Z,33.64
2022-08-17T11:57:27.165Z,31.57
2022-08-17T11:59:57.706Z,33.83
2022-08-17T12:02:32.540Z,32.91
2022-08-17T12:05:15.425Z,33.69
2022-08-17T12:08:04.613Z,35.22
2022-08-17T12:10:36.742Z,35.53
2022-08-17T12:13:13.461Z,34.31
2022-08-17T12:15:50.411Z,34.15
2022-08-17T12:18:21.273Z,35.13
2022-08-17T12:21:04.303Z,33.36
2022-08-17T12:23:52.290Z,35.55
2022-08-17T12:26:32.746Z,35.41
2022-08-17T12:29:04.027Z,34.89
2022-08-17T12:31:43.627Z,35.01
2022-08-17T12:34:21.689Z,33.93
2022-08-17T12:36:51.665Z,31.65
2022-08-17T12:39:21.880Z,31.35
2022-08-17T12:41:52.693Z,30.18
2022-08-17T12:44:28.704Z,29.44
2022-08-17T12:47:19.425Z,29.55
2022-08-17T12:49:51.312Z,29.70
2022-08-17T12:52:24.943Z,29.76
2022-08-17T12:54:59.536Z,29.25
2022-08-17T12:57:34.908Z,29.55
2022-08-17T13:00:30.363Z,29.23
2022-08-17T13:03:13.505Z,28.96
2022-08-17T13:05:43.516Z,29.78
2022-08-17T13:08:20.313Z,30.11
2022-08-17T13:11:05.072Z,29.65
2022-08-17T13:13:37.479Z,29.69
2022-08-17T13:16:09.421Z,29.58
2022-08-17T13:18:50.638Z,29.22
2022-08-17T13:21:26.970Z,28.59
2022-08-17T13:24:10.834Z,29.17
2022-08-17T13:26:42.027Z,29.64
2022-08-17T13:29:19.783Z,29.08
2022-08-17T13:31:52.816Z,29.71
2022-08-17T13:34:27.184Z,29.97
2022-08-17T13:37:32.730Z,29.53
2022-08-17T13:40:22.184Z,29.12
2022-08-17T13:42:52.830Z,28.95
2022-08-17T13:45:35.624Z,28.75
2022-08-17T13:48:12.537Z,28.03
2022-08-17T13:51:00.030Z,28.17
2022-08-17T13:53:33.122Z,28.77
2022-08-17T13:56:02.804Z,28.12
2022-08-17T13:58:32.963Z,28.59
2022-08-17T14:01:32.138Z,29.16
2022-08-17T14:04:00.456Z,29.67
2022-08-17T14:06:52.344Z,29.81
2022-08-17T14:09:20.426Z,29.58
2022-08-17T14:11:48.617Z,28.89
2022-08-17T14:14:16.443Z,29.10
2022-08-17T14:16:43.004Z,28.62
2022-08-17T14:19:14.600Z,28.50
2022-08-17T14:21:43.944Z,28.60
2022-08-17T14:24:30.127Z,28.66
2022-08-17T14:26:57.773Z,28.53
2022-08-17T14:29:27.986Z,28.88
2022-08-17T14:31:56.860Z,28.91
2022-08-17T14:34:24.586Z,28.89
2022-08-17T14:36:52.105Z,28.82
2022-08-17T14:39:20.245Z,29.07
2022-08-17T14:41:47.444Z,29.37
2022-08-17T14:44:16.181Z,29.11
2022-08-17T14:46:45.158Z,28.97
2022-08-17T14:49:13.191Z,29.35
2022-08-17T14:51:43.895Z,29.23
2022-08-17T14:54:11.971Z,29.47
2022-08-17T14:57:22.819Z,29.50
2022-08-17T14:59:45.773Z,29.10
2022-08-17T15:02:13.086Z,29.20
2022-08-17T15:04:44.873Z,29.02
2022-08-17T15:07:12.297Z,29.27
2022-08-17T15:09:38.925Z,29.27
2022-08-17T15:12:06.573Z,29.14
2022-08-17T15:14:35.642Z,28.76
2022-08-17T15:17:03.676Z,28.96
2022-08-17T15:19:30.701Z,29.10
2022-08-17T15:21:57.155Z,29.08
2022-08-17T15:24:24.075Z,28.60
2022-08-17T15:26:51.304Z,28.53
2022-08-17T15:29:17.665Z,28.41
2022-08-17T15:31:44.521Z,28.81
2022-08-17T15:34:11.435Z,28.63
2022-08-17T15:36:37.883Z,28.59
2022-08-17T15:39:07.681Z,28.47
2022-08-17T15:41:34.681Z,28.94
2022-08-17T15:44:01.063Z,28.85
2022-08-17T15:46:27.490Z,28.72
2022-08-17T15:48:59.247Z,29.01
2022-08-17T15:51:31.085Z,29.27
2022-08-17T15:54:04.262Z,29.15
2022-08-17T15:56:43.992Z,29.40
2022-08-17T15:59:10.348Z,29.02
2022-08-17T16:03:01.234Z,28.90
2022-08-17T16:04:29.722Z,28.64
2022-08-17T16:06:57.273Z,28.32
2022-08-17T16:09:23.664Z,28.46
2022-08-17T16:11:52.150Z,28.50
2022-08-17T16:14:23.201Z,28.34
2022-08-17T16:16:50.729Z,28.44
2022-08-17T16:19:17.136Z,28.07
2022-08-17T16:21:43.576Z,28.27
2022-08-17T16:24:13.717Z,28.46
2022-08-17T16:26:42.133Z,28.19
2022-08-17T16:29:08.640Z,27.99
2022-08-17T16:31:37.954Z,28.16
2022-08-17T16:34:16.813Z,28.22
2022-08-17T16:36:51.836Z,28.13
2022-08-17T16:39:27.590Z,28.02
2022-08-17T16:41:56.347Z,28.07
2022-08-17T16:44:22.950Z,27.88
2022-08-17T16:46:50.105Z,28.01
2022-08-17T16:49:36.025Z,27.88
2022-08-17T16:52:10.432Z,28.00
2022-08-17T16:54:39.323Z,27.82
2022-08-17T16:57:05.762Z,27.51
2022-08-17T16:59:41.893Z,27.49
2022-08-17T17:02:15.435Z,27.16
2022-08-17T17:04:57.872Z,27.13
2022-08-17T17:07:46.069Z,27.08
2022-08-17T17:10:15.315Z,27.03
2022-08-17T17:13:03.651Z,27.05
2022-08-17T17:15:42.164Z,27.06
2022-08-17T17:18:12.618Z,26.90
2022-08-17T17:20:54.543Z,26.92
2022-08-17T17:23:30.095Z,26.62
2022-08-17T17:26:10.871Z,26.58
2022-08-17T17:28:42.959Z,26.66
2022-08-17T17:31:19.427Z,26.64
2022-08-17T17:33:52.967Z,26.43
2022-08-17T17:36:48.209Z,26.21
2022-08-17T17:39:26.189Z,26.10
2022-08-17T17:41:59.881Z,25.96
2022-08-17T17:44:32.550Z,26.09
2022-08-17T17:47:01.167Z,26.01
2022-08-17T17:49:35.709Z,26.03
2022-08-17T17:52:18.393Z,25.90
2022-08-17T17:55:10.730Z,25.71
2022-08-17T17:57:54.756Z,25.50
2022-08-17T18:00:42.073Z,25.37
2022-08-17T18:03:19.543Z,25.24
2022-08-17T18:06:05.395Z,25.10
2022-08-17T18:08:37.366Z,25.02
2022-08-17T18:11:41.811Z,24.78
2022-08-17T18:14:19.820Z,24.41
2022-08-17T18:16:54.103Z,24.26
2022-08-17T18:19:21.280Z,24.05
2022-08-17T18:21:54.622Z,23.89
2022-08-17T18:24:37.982Z,23.67
2022-08-17T18:27:20.221Z,23.55
2022-08-17T18:29:48.460Z,23.29
2022-08-17T18:32:27.123Z,23.18
2022-08-17T18:35:11.118Z,23.04
2022-08-17T18:37:48.754Z,22.91
2022-08-17T18:40:19.390Z,22.72
2022-08-17T18:43:02.777Z,22.52
2022-08-17T18:45:47.159Z,22.35
2022-08-17T18:48:49.383Z,22.24
2022-08-17T18:51:40.468Z,22.18
2022-08-17T18:54:14.025Z,22.00
2022-08-17T18:56:52.857Z,21.91
2022-08-17T18:59:22.520Z,21.91
2022-08-17T19:02:22.122Z,21.81
2022-08-17T19:05:03.620Z,21.72
2022-08-17T19:07:32.014Z,21.73
2022-08-17T19:10:06.337Z,21.68
2022-08-17T19:12:49.876Z,21.63
2022-08-17T19:15:25.067Z,21.69
2022-08-17T19:18:00.087Z,21.75
2022-08-17T19:20:38.170Z,21.75
2022-08-17T19:23:17.755Z,21.82
2022-08-17T19:25:52.683Z,21.87
2022-08-17T19:28:36.740Z,21.99
2022-08-17T19:31:23.293Z,22.05
2022-08-17T19:33:50.364Z,22.01
2022-08-17T19:36:21.357Z,21.97
2022-08-17T19:39:02.984Z,21.95
2022-08-17T19:41:54.755Z,21.77
2022-08-17T19:44:38.003Z,21.72
2022-08-17T19:47:43.777Z,21.67
2022-08-17T19:50:19.304Z,21.59
2022-08-17T19:53:03.617Z,21.57
2022-08-17T19:55:51.375Z,21.51
2022-08-17T19:59:07.529Z,21.51
2022-08-17T20:01:54.488Z,21.57
2022-08-17T20:04:32.638Z,21.63
2022-08-17T20:07:23.927Z,21.67
2022-08-17T20:10:02.545Z,21.75
2022-08-17T20:12:36.615Z,21.64
2022-08-17T20:15:13.554Z,21.62
2022-08-17T20:17:46.143Z,21.43
2022-08-17T20:20:19.957Z,21.37
2022-08-17T20:22:57.239Z,21.33
2022-08-17T20:25:46.309Z,21.32
2022-08-17T20:28:19.604Z,21.33
2022-08-17T20:30:50.643Z,21.29
2022-08-17T20:33:36.769Z,21.25
2022-08-17T20:36:26.217Z,21.23
2022-08-17T20:38:56.637Z,21.34
2022-08-17T20:41:26.125Z,21.35
2022-08-17T20:43:55.219Z,21.30
2022-08-17T20:46:37.701Z,21.28
2022-08-17T20:49:22.341Z,21.45
2022-08-17T20:52:00.722Z,21.54
2022-08-17T20:54:46.261Z,21.70
2022-08-17T20:57:31.653Z,21.90
2022-08-17T21:00:14.629Z,21.98
2022-08-17T21:02:46.725Z,21.14
2022-08-17T21:05:37.489Z,20.77
2022-08-17T21:08:24.971Z,20.38
2022-08-17T21:10:53.541Z,20.08
2022-08-17T21:13:33.338Z,19.57
2022-08-17T21:16:24.631Z,19.21
2022-08-17T21:19:17.634Z,18.84
2022-08-17T21:22:04.143Z,18.51
2022-08-17T21:24:52.443Z,18.24
2022-08-17T21:27:33.884Z,18.26
2022-08-17T21:30:10.121Z,18.11
2022-08-17T21:32:42.117Z,18.10
2022-08-17T21:35:12.523Z,18.12
2022-08-17T21:37:42.859Z,18.11
2022-08-17T21:40:18.826Z,18.20
2022-08-17T21:42:48.669Z,18.14
2022-08-17T21:45:30.698Z,18.18
2022-08-17T21:48:06.937Z,18.35
2022-08-17T21:50:34.695Z,18.23
2022-08-17T21:53:03.687Z,18.10
2022-08-17T21:55:34.193Z,18.17
2022-08-17T21:58:14.759Z,17.97
2022-08-17T22:00:44.952Z,18.12
2022-08-17T22:03:25.821Z,17.96
2022-08-17T22:05:52.967Z,17.76
2022-08-17T22:08:23.580Z,17.72
2022-08-17T22:10:51.649Z,17.66
2022-08-17T22:13:19.859Z,17.65
2022-08-17T22:16:27.722Z,17.71
2022-08-17T22:18:58.375Z,17.64
2022-08-17T22:21:25.245Z,17.54
2022-08-17T22:24:18.187Z,17.57
2022-08-17T22:27:07.521Z,17.45
2022-08-17T22:29:53.265Z,17.46
2022-08-17T22:32:38.775Z,17.46
2022-08-17T22:35:25.501Z,17.44
2022-08-17T22:37:52.192Z,17.44
2022-08-17T22:40:33.023Z,17.38
2022-08-17T22:43:03.267Z,17.56
2022-08-17T22:45:31.020Z,17.41
2022-08-17T22:48:00.598Z,17.48
2022-08-17T22:50:32.901Z,17.53
2022-08-17T22:53:21.533Z,17.64
2022-08-17T22:56:13.983Z,17.80
2022-08-17T22:59:11.454Z,17.73
2022-08-17T23:01:39.396Z,17.80
2022-08-17T23:04:12.980Z,17.92
2022-08-17T23:06:42.243Z,17.83
2022-08-17T23:09:08.953Z,17.73
2022-08-17T23:11:48.771Z,17.70
2022-08-17T23:14:20.026Z,17.80
2022-08-17T23:16:48.600Z,17.73
2022-08-17T23:19:21.053Z,17.73
2022-08-17T23:21:50.907Z,17.70
2022-08-17T23:24:22.504Z,17.70
2022-08-17T23:26:49.007Z,17.63
2022-08-17T23:29:16.500Z,17.74
2022-08-17T23:31:43.528Z,17.72
2022-08-17T23:34:12.949Z,17.55
2022-08-17T23:36:39.407Z,17.68
2022-08-17T23:39:07.412Z,17.77
2022-08-17T23:41:38.505Z,17.75
2022-08-17T23:44:06.294Z,17.65
2022-08-17T23:46:32.994Z,17.57
2022-08-17T23:48:59.443Z,17.62
2022-08-17T23:51:31.203Z,17.73
2022-08-17T23:54:08.204Z,17.75
2022-08-17T23:56:40.566Z,17.73
2022-08-17T23:59:06.915Z,17.80
